sensor_id;sensor_type;location;lat;lon;timestamp;P1;durP1;ratioP1;P2;durP2;ratioP2
2854;SDS011;1435;49.472;10.940;2023-01-10T00:02:41;1.67;;;1.53;;
2854;SDS011;1435;49.472;10.940;2023-01-10T00:07:43;5.63;;;1.53;;
2854;SDS011;1435;49.472;10.940;2023-01-10T00:12:46;1.50;;;1.40;;
2854;SDS011;1435;49.472;10.940;2023-01-10T00:18:06;2.40;;;1.80;;
2854;SDS011;1435;49.472;10.940;2023-01-10T00:23:07;1.60;;;1.50;;
2854;SDS011;1435;49.472;10.940;2023-01-10T00:28:11;3.97;;;2.53;;
2854;SDS011;1435;49.472;10.940;2023-01-10T00:33:18;2.33;;;2.13;;
2854;SDS011;1435;49.472;10.940;2023-01-10T00:38:20;1.90;;;1.30;;
2854;SDS011;1435;49.472;10.940;2023-01-10T00:43:23;2.13;;;1.93;;
2854;SDS011;1435;49.472;10.940;2023-01-10T00:48:43;2.03;;;1.80;;
2854;SDS011;1435;49.472;10.940;2023-01-10T00:53:44;1.90;;;1.80;;
2854;SDS011;1435;49.472;10.940;2023-01-10T00:58:47;2.57;;;1.73;;
2854;SDS011;1435;49.472;10.940;2023-01-10T01:03:49;2.90;;;1.97;;
2854;SDS011;1435;49.472;10.940;2023-01-10T01:08:51;1.90;;;1.80;;
2854;SDS011;1435;49.472;10.940;2023-01-10T01:13:54;4.30;;;1.90;;
2854;SDS011;1435;49.472;10.940;2023-01-10T01:18:55;1.67;;;1.57;;
2854;SDS011;1435;49.472;10.940;2023-01-10T01:23:57;2.17;;;1.80;;
2854;SDS011;1435;49.472;10.940;2023-01-10T01:29:00;2.00;;;1.80;;
2854;SDS011;1435;49.472;10.940;2023-01-10T01:34:02;3.13;;;1.37;;
2854;SDS011;1435;49.472;10.940;2023-01-10T01:39:04;1.90;;;1.50;;
2854;SDS011;1435;49.472;10.940;2023-01-10T01:44:09;2.10;;;1.50;;
2854;SDS011;1435;49.472;10.940;2023-01-10T01:49:16;1.93;;;1.67;;
2854;SDS011;1435;49.472;10.940;2023-01-10T01:54:21;1.93;;;1.83;;
2854;SDS011;1435;49.472;10.940;2023-01-10T01:59:25;1.40;;;1.30;;
2854;SDS011;1435;49.472;10.940;2023-01-10T02:04:30;1.60;;;1.50;;
2854;SDS011;1435;49.472;10.940;2023-01-10T02:09:39;1.20;;;1.10;;
2854;SDS011;1435;49.472;10.940;2023-01-10T02:14:48;1.23;;;1.20;;
2854;SDS011;1435;49.472;10.940;2023-01-10T02:19:52;1.47;;;1.37;;
2854;SDS011;1435;49.472;10.940;2023-01-10T02:36:22;2.63;;;1.60;;
2854;SDS011;1435;49.472;10.940;2023-01-10T02:41:34;2.03;;;1.50;;
2854;SDS011;1435;49.472;10.940;2023-01-10T02:46:42;3.13;;;2.27;;
2854;SDS011;1435;49.472;10.940;2023-01-10T02:51:47;2.60;;;2.40;;
2854;SDS011;1435;49.472;10.940;2023-01-10T02:57:02;1.80;;;1.70;;
2854;SDS011;1435;49.472;10.940;2023-01-10T03:02:26;4.13;;;2.70;;
2854;SDS011;1435;49.472;10.940;2023-01-10T03:07:58;3.30;;;2.70;;
2854;SDS011;1435;49.472;10.940;2023-01-10T03:13:03;3.53;;;3.20;;
2854;SDS011;1435;49.472;10.940;2023-01-10T03:18:12;3.30;;;3.00;;
2854;SDS011;1435;49.472;10.940;2023-01-10T03:23:19;2.63;;;2.40;;
2854;SDS011;1435;49.472;10.940;2023-01-10T03:28:25;3.20;;;3.00;;
2854;SDS011;1435;49.472;10.940;2023-01-10T03:33:30;2.97;;;2.77;;
2854;SDS011;1435;49.472;10.940;2023-01-10T03:38:36;3.47;;;3.17;;
2854;SDS011;1435;49.472;10.940;2023-01-10T03:43:46;2.97;;;2.70;;
2854;SDS011;1435;49.472;10.940;2023-01-10T03:49:11;3.40;;;3.10;;
2854;SDS011;1435;49.472;10.940;2023-01-10T03:54:16;3.10;;;2.90;;
2854;SDS011;1435;49.472;10.940;2023-01-10T03:59:19;3.17;;;2.97;;
2854;SDS011;1435;49.472;10.940;2023-01-10T04:04:22;2.93;;;2.67;;
2854;SDS011;1435;49.472;10.940;2023-01-10T04:09:25;3.10;;;2.80;;
2854;SDS011;1435;49.472;10.940;2023-01-10T04:14:27;4.13;;;3.70;;
2854;SDS011;1435;49.472;10.940;2023-01-10T04:19:31;4.13;;;3.50;;
2854;SDS011;1435;49.472;10.940;2023-01-10T04:24:34;4.30;;;3.90;;
2854;SDS011;1435;49.472;10.940;2023-01-10T04:29:36;4.27;;;3.87;;
2854;SDS011;1435;49.472;10.940;2023-01-10T04:34:38;4.40;;;4.10;;
2854;SDS011;1435;49.472;10.940;2023-01-10T04:39:41;3.73;;;3.40;;
2854;SDS011;1435;49.472;10.940;2023-01-10T04:44:42;6.10;;;3.90;;
2854;SDS011;1435;49.472;10.940;2023-01-10T04:49:44;3.23;;;2.80;;
2854;SDS011;1435;49.472;10.940;2023-01-10T04:54:47;4.20;;;3.90;;
2854;SDS011;1435;49.472;10.940;2023-01-10T04:59:48;4.00;;;3.63;;
2854;SDS011;1435;49.472;10.940;2023-01-10T05:04:50;3.87;;;3.57;;
2854;SDS011;1435;49.472;10.940;2023-01-10T05:09:53;3.77;;;3.40;;
2854;SDS011;1435;49.472;10.940;2023-01-10T05:14:55;4.10;;;2.93;;
2854;SDS011;1435;49.472;10.940;2023-01-10T05:19:56;4.30;;;3.87;;
2854;SDS011;1435;49.472;10.940;2023-01-10T05:24:59;6.73;;;3.47;;
2854;SDS011;1435;49.472;10.940;2023-01-10T05:30:01;4.10;;;3.70;;
2854;SDS011;1435;49.472;10.940;2023-01-10T05:35:04;6.27;;;3.73;;
2854;SDS011;1435;49.472;10.940;2023-01-10T05:40:08;4.60;;;3.60;;
2854;SDS011;1435;49.472;10.940;2023-01-10T05:45:10;5.57;;;4.03;;
2854;SDS011;1435;49.472;10.940;2023-01-10T05:50:12;3.90;;;3.30;;
2854;SDS011;1435;49.472;10.940;2023-01-10T05:55:15;3.23;;;2.93;;
2854;SDS011;1435;49.472;10.940;2023-01-10T06:00:17;4.13;;;3.10;;
2854;SDS011;1435;49.472;10.940;2023-01-10T06:05:19;5.20;;;3.73;;
2854;SDS011;1435;49.472;10.940;2023-01-10T06:10:22;4.97;;;3.17;;
2854;SDS011;1435;49.472;10.940;2023-01-10T06:15:24;2.83;;;2.60;;
2854;SDS011;1435;49.472;10.940;2023-01-10T06:20:27;3.80;;;2.90;;
2854;SDS011;1435;49.472;10.940;2023-01-10T06:25:30;4.10;;;3.30;;
2854;SDS011;1435;49.472;10.940;2023-01-10T06:30:32;5.03;;;3.30;;
2854;SDS011;1435;49.472;10.940;2023-01-10T06:35:34;3.17;;;2.83;;
2854;SDS011;1435;49.472;10.940;2023-01-10T06:40:38;3.63;;;3.20;;
2854;SDS011;1435;49.472;10.940;2023-01-10T06:45:39;3.47;;;2.80;;
2854;SDS011;1435;49.472;10.940;2023-01-10T06:50:41;4.10;;;2.83;;
2854;SDS011;1435;49.472;10.940;2023-01-10T06:55:44;3.97;;;2.40;;
2854;SDS011;1435;49.472;10.940;2023-01-10T07:00:46;4.13;;;2.37;;
2854;SDS011;1435;49.472;10.940;2023-01-10T07:05:48;2.70;;;2.50;;
2854;SDS011;1435;49.472;10.940;2023-01-10T07:10:51;4.30;;;2.30;;
2854;SDS011;1435;49.472;10.940;2023-01-10T07:16:00;5.40;;;2.30;;
2854;SDS011;1435;49.472;10.940;2023-01-10T07:21:02;2.73;;;2.10;;
2854;SDS011;1435;49.472;10.940;2023-01-10T07:26:07;2.97;;;2.50;;
2854;SDS011;1435;49.472;10.940;2023-01-10T07:31:10;2.40;;;2.13;;
2854;SDS011;1435;49.472;10.940;2023-01-10T07:36:12;2.50;;;1.97;;
2854;SDS011;1435;49.472;10.940;2023-01-10T07:41:15;5.80;;;2.53;;
2854;SDS011;1435;49.472;10.940;2023-01-10T07:46:17;3.37;;;1.80;;
2854;SDS011;1435;49.472;10.940;2023-01-10T07:51:19;3.00;;;1.50;;
2854;SDS011;1435;49.472;10.940;2023-01-10T07:56:22;3.23;;;2.00;;
2854;SDS011;1435;49.472;10.940;2023-01-10T08:01:24;3.77;;;2.40;;
2854;SDS011;1435;49.472;10.940;2023-01-10T08:06:26;3.40;;;1.73;;
2854;SDS011;1435;49.472;10.940;2023-01-10T08:11:29;3.53;;;2.60;;
2854;SDS011;1435;49.472;10.940;2023-01-10T08:16:30;4.60;;;3.00;;
2854;SDS011;1435;49.472;10.940;2023-01-10T08:21:33;5.37;;;2.60;;
2854;SDS011;1435;49.472;10.940;2023-01-10T08:26:36;4.43;;;2.30;;
2854;SDS011;1435;49.472;10.940;2023-01-10T08:31:39;4.10;;;2.20;;
2854;SDS011;1435;49.472;10.940;2023-01-10T08:36:41;2.77;;;2.20;;
2854;SDS011;1435;49.472;10.940;2023-01-10T08:41:44;4.30;;;2.80;;
2854;SDS011;1435;49.472;10.940;2023-01-10T08:46:46;3.53;;;2.83;;
2854;SDS011;1435;49.472;10.940;2023-01-10T08:51:48;5.33;;;3.70;;
2854;SDS011;1435;49.472;10.940;2023-01-10T08:56:51;3.63;;;3.33;;
2854;SDS011;1435;49.472;10.940;2023-01-10T09:01:53;4.87;;;3.33;;
2854;SDS011;1435;49.472;10.940;2023-01-10T09:06:57;3.50;;;3.20;;
2854;SDS011;1435;49.472;10.940;2023-01-10T09:12:00;3.17;;;2.87;;
2854;SDS011;1435;49.472;10.940;2023-01-10T09:17:21;4.00;;;3.07;;
2854;SDS011;1435;49.472;10.940;2023-01-10T09:22:23;3.87;;;3.43;;
2854;SDS011;1435;49.472;10.940;2023-01-10T09:27:29;4.73;;;2.90;;
2854;SDS011;1435;49.472;10.940;2023-01-10T09:32:31;5.80;;;2.93;;
2854;SDS011;1435;49.472;10.940;2023-01-10T09:37:33;3.43;;;2.57;;
2854;SDS011;1435;49.472;10.940;2023-01-10T09:42:40;4.43;;;2.50;;
2854;SDS011;1435;49.472;10.940;2023-01-10T09:47:56;4.97;;;2.27;;
2854;SDS011;1435;49.472;10.940;2023-01-10T09:53:04;2.87;;;2.50;;
2854;SDS011;1435;49.472;10.940;2023-01-10T09:58:14;5.07;;;2.10;;
2854;SDS011;1435;49.472;10.940;2023-01-10T10:03:23;9.43;;;2.90;;
2854;SDS011;1435;49.472;10.940;2023-01-10T10:08:29;3.63;;;2.20;;
2854;SDS011;1435;49.472;10.940;2023-01-10T10:13:36;4.00;;;2.73;;
2854;SDS011;1435;49.472;10.940;2023-01-10T10:18:47;6.10;;;2.57;;
2854;SDS011;1435;49.472;10.940;2023-01-10T10:24:03;5.30;;;2.37;;
2854;SDS011;1435;49.472;10.940;2023-01-10T10:29:37;4.23;;;1.90;;
2854;SDS011;1435;49.472;10.940;2023-01-10T10:34:54;5.60;;;3.00;;
2854;SDS011;1435;49.472;10.940;2023-01-10T10:40:01;3.23;;;2.87;;
2854;SDS011;1435;49.472;10.940;2023-01-10T10:45:13;3.67;;;2.97;;
2854;SDS011;1435;49.472;10.940;2023-01-10T10:50:18;7.50;;;2.30;;
2854;SDS011;1435;49.472;10.940;2023-01-10T10:55:28;7.70;;;2.73;;
2854;SDS011;1435;49.472;10.940;2023-01-10T11:00:32;4.73;;;3.03;;
2854;SDS011;1435;49.472;10.940;2023-01-10T11:05:35;5.20;;;2.90;;
2854;SDS011;1435;49.472;10.940;2023-01-10T11:10:39;5.47;;;2.83;;
2854;SDS011;1435;49.472;10.940;2023-01-10T11:15:46;3.80;;;2.07;;
2854;SDS011;1435;49.472;10.940;2023-01-10T11:20:50;5.27;;;2.50;;
2854;SDS011;1435;49.472;10.940;2023-01-10T11:25:56;13.53;;;2.83;;
2854;SDS011;1435;49.472;10.940;2023-01-10T11:31:00;2.60;;;2.40;;
2854;SDS011;1435;49.472;10.940;2023-01-10T11:36:04;4.30;;;2.60;;
2854;SDS011;1435;49.472;10.940;2023-01-10T11:41:21;2.07;;;1.77;;
2854;SDS011;1435;49.472;10.940;2023-01-10T11:46:27;4.33;;;2.17;;
2854;SDS011;1435;49.472;10.940;2023-01-10T11:51:30;8.50;;;2.23;;
2854;SDS011;1435;49.472;10.940;2023-01-10T11:56:34;8.00;;;2.50;;
2854;SDS011;1435;49.472;10.940;2023-01-10T12:01:41;5.40;;;2.20;;
2854;SDS011;1435;49.472;10.940;2023-01-10T12:06:45;6.57;;;2.73;;
2854;SDS011;1435;49.472;10.940;2023-01-10T12:11:49;7.93;;;4.67;;
2854;SDS011;1435;49.472;10.940;2023-01-10T12:17:03;4.57;;;2.27;;
2854;SDS011;1435;49.472;10.940;2023-01-10T12:22:05;2.60;;;2.27;;
2854;SDS011;1435;49.472;10.940;2023-01-10T12:27:13;5.33;;;2.50;;
2854;SDS011;1435;49.472;10.940;2023-01-10T12:32:18;5.60;;;1.97;;
2854;SDS011;1435;49.472;10.940;2023-01-10T12:37:25;4.50;;;2.03;;
2854;SDS011;1435;49.472;10.940;2023-01-10T12:42:40;6.73;;;2.30;;
2854;SDS011;1435;49.472;10.940;2023-01-10T12:48:11;5.67;;;2.20;;
2854;SDS011;1435;49.472;10.940;2023-01-10T12:53:19;5.73;;;1.87;;
2854;SDS011;1435;49.472;10.940;2023-01-10T12:58:31;3.50;;;2.30;;
2854;SDS011;1435;49.472;10.940;2023-01-10T13:03:39;5.13;;;2.23;;
2854;SDS011;1435;49.472;10.940;2023-01-10T13:08:42;6.60;;;2.20;;
2854;SDS011;1435;49.472;10.940;2023-01-10T13:13:46;4.33;;;2.40;;
2854;SDS011;1435;49.472;10.940;2023-01-10T13:19:01;5.80;;;2.60;;
2854;SDS011;1435;49.472;10.940;2023-01-10T13:24:06;3.73;;;2.07;;
2854;SDS011;1435;49.472;10.940;2023-01-10T13:29:20;5.27;;;2.20;;
2854;SDS011;1435;49.472;10.940;2023-01-10T13:34:25;2.80;;;1.87;;
2854;SDS011;1435;49.472;10.940;2023-01-10T13:39:33;5.83;;;2.60;;
2854;SDS011;1435;49.472;10.940;2023-01-10T13:56:00;6.53;;;2.00;;
2854;SDS011;1435;49.472;10.940;2023-01-10T14:01:02;8.43;;;2.40;;
2854;SDS011;1435;49.472;10.940;2023-01-10T14:06:35;4.87;;;2.37;;
2854;SDS011;1435;49.472;10.940;2023-01-10T14:11:48;4.67;;;1.97;;
2854;SDS011;1435;49.472;10.940;2023-01-10T14:16:52;1.63;;;1.53;;
2854;SDS011;1435;49.472;10.940;2023-01-10T14:21:56;5.80;;;2.23;;
2854;SDS011;1435;49.472;10.940;2023-01-10T14:27:01;6.07;;;1.57;;
2854;SDS011;1435;49.472;10.940;2023-01-10T14:32:04;4.10;;;2.37;;
2854;SDS011;1435;49.472;10.940;2023-01-10T14:37:19;5.10;;;2.60;;
2854;SDS011;1435;49.472;10.940;2023-01-10T14:42:29;5.13;;;1.60;;
2854;SDS011;1435;49.472;10.940;2023-01-10T14:47:32;4.70;;;2.27;;
2854;SDS011;1435;49.472;10.940;2023-01-10T14:52:36;3.17;;;2.03;;
2854;SDS011;1435;49.472;10.940;2023-01-10T14:57:52;13.63;;;2.90;;
2854;SDS011;1435;49.472;10.940;2023-01-10T15:02:55;4.93;;;2.10;;
2854;SDS011;1435;49.472;10.940;2023-01-10T15:08:13;6.57;;;2.13;;
2854;SDS011;1435;49.472;10.940;2023-01-10T15:13:20;4.30;;;2.50;;
2854;SDS011;1435;49.472;10.940;2023-01-10T15:18:29;5.30;;;2.27;;
2854;SDS011;1435;49.472;10.940;2023-01-10T15:23:35;2.67;;;1.80;;
2854;SDS011;1435;49.472;10.940;2023-01-10T15:28:41;5.23;;;2.47;;
2854;SDS011;1435;49.472;10.940;2023-01-10T15:33:47;4.30;;;1.80;;
2854;SDS011;1435;49.472;10.940;2023-01-10T15:38:55;7.10;;;2.70;;
2854;SDS011;1435;49.472;10.940;2023-01-10T15:49:32;9.50;;;2.47;;
2854;SDS011;1435;49.472;10.940;2023-01-10T15:54:34;8.70;;;2.40;;
2854;SDS011;1435;49.472;10.940;2023-01-10T15:59:38;6.30;;;3.13;;
2854;SDS011;1435;49.472;10.940;2023-01-10T16:04:43;6.60;;;2.50;;
2854;SDS011;1435;49.472;10.940;2023-01-10T16:09:48;8.30;;;2.80;;
2854;SDS011;1435;49.472;10.940;2023-01-10T16:14:53;8.63;;;3.03;;
2854;SDS011;1435;49.472;10.940;2023-01-10T16:19:56;4.50;;;2.77;;
2854;SDS011;1435;49.472;10.940;2023-01-10T16:24:58;7.50;;;3.00;;
2854;SDS011;1435;49.472;10.940;2023-01-10T16:30:01;4.37;;;2.53;;
2854;SDS011;1435;49.472;10.940;2023-01-10T16:35:03;3.10;;;2.47;;
2854;SDS011;1435;49.472;10.940;2023-01-10T16:40:10;7.50;;;3.27;;
2854;SDS011;1435;49.472;10.940;2023-01-10T16:45:19;8.93;;;2.70;;
2854;SDS011;1435;49.472;10.940;2023-01-10T16:50:21;2.87;;;2.40;;
2854;SDS011;1435;49.472;10.940;2023-01-10T16:55:25;7.33;;;2.93;;
2854;SDS011;1435;49.472;10.940;2023-01-10T17:00:35;6.60;;;2.80;;
2854;SDS011;1435;49.472;10.940;2023-01-10T17:05:37;2.93;;;2.40;;
2854;SDS011;1435;49.472;10.940;2023-01-10T17:10:39;68.03;;;42.80;;
2854;SDS011;1435;49.472;10.940;2023-01-10T17:15:42;89.87;;;56.90;;
2854;SDS011;1435;49.472;10.940;2023-01-10T17:20:44;19.73;;;16.10;;
2854;SDS011;1435;49.472;10.940;2023-01-10T17:25:45;12.23;;;10.80;;
2854;SDS011;1435;49.472;10.940;2023-01-10T17:30:50;9.23;;;7.50;;
2854;SDS011;1435;49.472;10.940;2023-01-10T17:35:52;6.60;;;5.70;;
2854;SDS011;1435;49.472;10.940;2023-01-10T17:40:56;10.07;;;8.77;;
2854;SDS011;1435;49.472;10.940;2023-01-10T17:46:02;12.53;;;7.83;;
2854;SDS011;1435;49.472;10.940;2023-01-10T17:51:05;6.63;;;4.07;;
2854;SDS011;1435;49.472;10.940;2023-01-10T17:56:08;4.77;;;2.70;;
2854;SDS011;1435;49.472;10.940;2023-01-10T18:01:14;3.83;;;2.20;;
2854;SDS011;1435;49.472;10.940;2023-01-10T18:06:18;9.17;;;4.87;;
2854;SDS011;1435;49.472;10.940;2023-01-10T18:11:21;4.30;;;3.20;;
2854;SDS011;1435;49.472;10.940;2023-01-10T18:16:25;4.27;;;3.20;;
2854;SDS011;1435;49.472;10.940;2023-01-10T18:21:27;6.13;;;3.00;;
2854;SDS011;1435;49.472;10.940;2023-01-10T18:26:28;10.47;;;7.50;;
2854;SDS011;1435;49.472;10.940;2023-01-10T18:31:32;7.07;;;6.07;;
2854;SDS011;1435;49.472;10.940;2023-01-10T18:36:34;6.83;;;5.13;;
2854;SDS011;1435;49.472;10.940;2023-01-10T18:41:38;5.40;;;4.30;;
2854;SDS011;1435;49.472;10.940;2023-01-10T18:46:41;14.07;;;6.70;;
2854;SDS011;1435;49.472;10.940;2023-01-10T18:51:43;7.13;;;4.70;;
2854;SDS011;1435;49.472;10.940;2023-01-10T18:56:45;6.70;;;5.03;;
2854;SDS011;1435;49.472;10.940;2023-01-10T19:01:48;10.93;;;6.90;;
2854;SDS011;1435;49.472;10.940;2023-01-10T19:06:49;11.00;;;6.33;;
2854;SDS011;1435;49.472;10.940;2023-01-10T19:11:51;7.87;;;5.90;;
2854;SDS011;1435;49.472;10.940;2023-01-10T19:16:54;9.60;;;5.30;;
2854;SDS011;1435;49.472;10.940;2023-01-10T19:21:56;8.20;;;6.03;;
2854;SDS011;1435;49.472;10.940;2023-01-10T19:26:58;10.73;;;5.10;;
2854;SDS011;1435;49.472;10.940;2023-01-10T19:32:01;9.03;;;5.87;;
2854;SDS011;1435;49.472;10.940;2023-01-10T19:37:03;7.30;;;6.60;;
2854;SDS011;1435;49.472;10.940;2023-01-10T19:42:05;9.50;;;4.93;;
2854;SDS011;1435;49.472;10.940;2023-01-10T19:47:08;6.53;;;4.97;;
2854;SDS011;1435;49.472;10.940;2023-01-10T19:52:11;5.53;;;4.87;;
2854;SDS011;1435;49.472;10.940;2023-01-10T19:57:14;10.27;;;5.80;;
2854;SDS011;1435;49.472;10.940;2023-01-10T20:02:17;8.83;;;5.50;;
2854;SDS011;1435;49.472;10.940;2023-01-10T20:07:19;7.10;;;4.70;;
2854;SDS011;1435;49.472;10.940;2023-01-10T20:12:21;4.30;;;3.90;;
2854;SDS011;1435;49.472;10.940;2023-01-10T20:17:24;4.43;;;3.83;;
2854;SDS011;1435;49.472;10.940;2023-01-10T20:22:27;4.57;;;3.73;;
2854;SDS011;1435;49.472;10.940;2023-01-10T20:27:29;7.57;;;4.43;;
2854;SDS011;1435;49.472;10.940;2023-01-10T20:32:32;5.87;;;4.90;;
2854;SDS011;1435;49.472;10.940;2023-01-10T20:37:34;11.90;;;5.73;;
2854;SDS011;1435;49.472;10.940;2023-01-10T20:42:35;12.63;;;7.10;;
2854;SDS011;1435;49.472;10.940;2023-01-10T20:47:43;20.27;;;12.73;;
2854;SDS011;1435;49.472;10.940;2023-01-10T20:52:44;15.60;;;8.97;;
2854;SDS011;1435;49.472;10.940;2023-01-10T20:57:46;9.43;;;5.17;;
2854;SDS011;1435;49.472;10.940;2023-01-10T21:02:49;6.00;;;5.00;;
2854;SDS011;1435;49.472;10.940;2023-01-10T21:07:51;7.27;;;4.27;;
2854;SDS011;1435;49.472;10.940;2023-01-10T21:12:52;6.23;;;5.63;;
2854;SDS011;1435;49.472;10.940;2023-01-10T21:17:56;8.63;;;5.33;;
2854;SDS011;1435;49.472;10.940;2023-01-10T21:22:57;5.70;;;5.10;;
2854;SDS011;1435;49.472;10.940;2023-01-10T21:27:59;11.60;;;6.23;;
2854;SDS011;1435;49.472;10.940;2023-01-10T21:33:02;8.60;;;5.07;;
2854;SDS011;1435;49.472;10.940;2023-01-10T21:38:04;5.90;;;4.93;;
2854;SDS011;1435;49.472;10.940;2023-01-10T21:43:06;10.33;;;6.00;;
2854;SDS011;1435;49.472;10.940;2023-01-10T21:48:09;8.53;;;6.07;;
2854;SDS011;1435;49.472;10.940;2023-01-10T21:53:11;6.57;;;5.60;;
2854;SDS011;1435;49.472;10.940;2023-01-10T21:58:13;9.10;;;4.27;;
2854;SDS011;1435;49.472;10.940;2023-01-10T22:03:16;5.30;;;4.80;;
2854;SDS011;1435;49.472;10.940;2023-01-10T22:08:17;8.57;;;5.13;;
2854;SDS011;1435;49.472;10.940;2023-01-10T22:13:19;7.60;;;4.70;;
2854;SDS011;1435;49.472;10.940;2023-01-10T22:18:22;8.53;;;4.87;;
2854;SDS011;1435;49.472;10.940;2023-01-10T22:23:26;5.60;;;4.90;;
2854;SDS011;1435;49.472;10.940;2023-01-10T22:28:28;9.80;;;4.67;;
2854;SDS011;1435;49.472;10.940;2023-01-10T22:33:32;11.20;;;5.23;;
2854;SDS011;1435;49.472;10.940;2023-01-10T22:38:35;7.23;;;4.43;;
2854;SDS011;1435;49.472;10.940;2023-01-10T22:43:37;7.47;;;5.13;;
2854;SDS011;1435;49.472;10.940;2023-01-10T22:48:40;7.13;;;5.43;;
2854;SDS011;1435;49.472;10.940;2023-01-10T22:53:47;12.90;;;5.30;;
2854;SDS011;1435;49.472;10.940;2023-01-10T22:58:49;7.50;;;4.97;;
2854;SDS011;1435;49.472;10.940;2023-01-10T23:03:52;6.10;;;4.63;;
2854;SDS011;1435;49.472;10.940;2023-01-10T23:08:54;7.07;;;4.90;;
2854;SDS011;1435;49.472;10.940;2023-01-10T23:13:56;8.87;;;4.43;;
2854;SDS011;1435;49.472;10.940;2023-01-10T23:18:59;5.37;;;3.87;;
2854;SDS011;1435;49.472;10.940;2023-01-10T23:24:01;4.50;;;4.10;;
2854;SDS011;1435;49.472;10.940;2023-01-10T23:29:02;5.40;;;3.63;;
2854;SDS011;1435;49.472;10.940;2023-01-10T23:34:05;5.40;;;3.93;;
2854;SDS011;1435;49.472;10.940;2023-01-10T23:39:07;7.33;;;4.40;;
2854;SDS011;1435;49.472;10.940;2023-01-10T23:44:09;5.17;;;4.00;;
2854;SDS011;1435;49.472;10.940;2023-01-10T23:49:12;5.87;;;3.60;;
2854;SDS011;1435;49.472;10.940;2023-01-10T23:54:13;6.80;;;3.33;;
2854;SDS011;1435;49.472;10.940;2023-01-10T23:59:16;3.90;;;3.60;;
